Time;durP1;ratioP1;P1;durP2;ratioP2;P2;SDS_P1;SDS_P2;PMS_P1;PMS_P2;Temp;Humidity;BMP_temperature;BMP_pressure;BME280_temperature;BME280_humidity;BME280_pressure;Samples;Min_cycle;Max_cycle;Signal;HPM_P1;HPM_P2
2023/10/30 00:07:19;;;;;;;12.85;5.65;;;9.70;99.90;;;;;;25345671;23;20002;-58
2023/10/30 00:17:21;;;;;;;6.80;3.40;;;9.70;99.90;;;;;;25319151;23;20006;-53
2023/10/30 00:27:22;;;;;;;3.92;2.10;;;9.70;99.90;;;;;;25346290;23;20022;-59
2023/10/30 00:37:24;;;;;;;8.13;2.60;;;9.70;99.90;;;;;;25344189;23;20002;-57
2023/10/30 00:47:26;;;;;;;8.45;2.20;;;9.60;99.90;;;;;;25317907;23;20002;-58
2023/10/30 00:57:28;;;;;;;4.88;1.67;;;9.60;99.90;;;;;;25342852;23;20346;-58
2023/10/30 01:07:30;;;;;;;8.52;2.05;;;9.50;99.90;;;;;;25342636;23;20006;-58
2023/10/30 01:17:32;;;;;;;6.53;1.90;;;9.70;99.90;;;;;;25341483;23;20505;-57
2023/10/30 01:27:35;;;;;;;4.93;1.92;;;9.90;99.90;;;;;;25342081;23;20010;-58
2023/10/30 01:37:37;;;;;;;5.55;1.70;;;10.00;99.90;;;;;;25316381;23;20065;-58
2023/10/30 01:47:40;;;;;;;4.07;1.50;;;10.00;99.90;;;;;;25341515;23;20041;-60
2023/10/30 01:57:43;;;;;;;8.35;2.30;;;10.00;99.90;;;;;;25315122;23;20014;-60
2023/10/30 02:07:45;;;;;;;4.47;1.73;;;10.00;99.90;;;;;;25315528;23;20009;-60
2023/10/30 02:17:47;;;;;;;7.70;2.45;;;9.90;99.90;;;;;;25340271;23;20065;-55
2023/10/30 02:27:50;;;;;;;4.60;1.48;;;9.90;99.90;;;;;;25314450;23;20013;-60
2023/10/30 02:37:51;;;;;;;6.40;1.60;;;9.90;99.90;;;;;;25339745;23;20010;-62
2023/10/30 02:47:53;;;;;;;6.78;1.98;;;9.80;99.90;;;;;;25339411;23;20006;-62
2023/10/30 02:57:55;;;;;;;4.68;1.50;;;9.70;99.90;;;;;;25339800;23;20010;-62
2023/10/30 03:07:57;;;;;;;6.38;1.58;;;9.70;99.90;;;;;;25312931;23;20076;-62
2023/10/30 03:17:59;;;;;;;8.45;1.92;;;9.60;99.90;;;;;;25313029;23;20080;-64
2023/10/30 03:28:02;;;;;;;6.22;1.70;;;9.60;99.90;;;;;;25317074;23;20006;-63
2023/10/30 03:38:04;;;;;;;5.25;1.65;;;9.50;99.90;;;;;;25319229;23;20010;-59
2023/10/30 03:48:06;;;;;;;3.80;2.03;;;9.50;99.90;;;;;;25345332;23;20006;-63
2023/10/30 03:58:07;;;;;;;6.05;2.40;;;9.40;99.90;;;;;;25344528;23;20070;-62
2023/10/30 04:08:09;;;;;;;5.90;1.75;;;9.40;99.90;;;;;;25344944;23;20082;-59
2023/10/30 04:18:11;;;;;;;3.53;1.67;;;9.30;99.90;;;;;;25344645;23;20006;-62
2023/10/30 04:28:13;;;;;;;4.50;1.90;;;9.20;99.90;;;;;;25344070;23;20521;-62
2023/10/30 04:38:14;;;;;;;4.68;1.50;;;9.30;99.90;;;;;;25317102;23;20061;-61
2023/10/30 04:48:16;;;;;;;6.10;2.28;;;9.40;99.90;;;;;;25343273;23;20014;-62
2023/10/30 04:58:18;;;;;;;6.25;2.40;;;9.50;99.90;;;;;;25343924;23;20049;-61
2023/10/30 05:08:20;;;;;;;6.32;2.38;;;9.50;99.90;;;;;;25344108;23;20006;-62
2023/10/30 05:18:22;;;;;;;7.43;3.30;;;9.60;99.90;;;;;;25341814;23;20002;-61
2023/10/30 05:28:23;;;;;;;6.70;3.42;;;9.60;99.90;;;;;;25341610;23;20010;-62
2023/10/30 05:38:25;;;;;;;5.78;3.15;;;9.80;99.90;;;;;;25341481;23;20501;-62
2023/10/30 05:48:27;;;;;;;8.15;3.00;;;9.90;99.90;;;;;;25340850;23;20013;-62
2023/10/30 05:58:29;;;;;;;7.25;3.83;;;9.90;99.90;;;;;;25339995;23;20017;-61
2023/10/30 06:08:30;;;;;;;6.85;3.70;;;9.90;99.90;;;;;;25339787;23;20073;-61
2023/10/30 06:18:32;;;;;;;15.27;4.50;;;10.00;99.90;;;;;;25341008;23;20010;-61
2023/10/30 06:28:34;;;;;;;6.88;3.35;;;10.00;99.90;;;;;;25339838;23;20010;-61
2023/10/30 06:38:36;;;;;;;8.18;2.80;;;10.10;99.90;;;;;;25338978;23;20057;-61
2023/10/30 06:48:37;;;;;;;6.68;2.65;;;10.10;99.90;;;;;;25338947;23;20010;-61
2023/10/30 06:58:39;;;;;;;10.73;3.65;;;10.20;99.90;;;;;;25339001;23;20387;-61
2023/10/30 07:08:41;;;;;;;9.77;3.00;;;10.20;99.90;;;;;;25338421;23;20014;-61
2023/10/30 07:18:42;;;;;;;5.97;2.80;;;10.30;99.90;;;;;;25311965;23;20013;-59
2023/10/30 07:28:45;;;;;;;4.63;2.83;;;10.40;99.90;;;;;;25338067;23;20016;-62
2023/10/30 07:38:46;;;;;;;7.03;4.30;;;10.50;99.90;;;;;;25337576;23;20025;-59
2023/10/30 07:48:48;;;;;;;9.23;4.90;;;10.60;99.90;;;;;;25337923;23;20006;-62
2023/10/30 07:58:50;;;;;;;5.55;3.25;;;10.80;99.90;;;;;;25337258;23;20029;-58
2023/10/30 08:08:52;;;;;;;553.40;21.08;;;10.90;99.90;;;;;;25312414;23;20081;-63
2023/10/30 08:18:54;;;;;;;110.03;3.92;;;11.00;99.90;;;;;;25345782;23;20021;-63
2023/10/30 08:28:56;;;;;;;50.08;2.65;;;10.90;99.90;;;;;;25343009;23;20061;-63
2023/10/30 08:38:57;;;;;;;4.72;2.83;;;11.00;99.90;;;;;;25343726;23;20379;-63
2023/10/30 08:48:59;;;;;;;5.65;2.72;;;10.90;99.90;;;;;;25343249;23;20010;-62
2023/10/30 08:59:03;;;;;;;16.50;2.75;;;10.80;99.90;;;;;;25342892;23;20521;-62
2023/10/30 09:09:05;;;;;;;4.57;1.70;;;10.80;99.90;;;;;;25342018;23;20006;-59
2023/10/30 09:19:07;;;;;;;3.88;1.20;;;10.90;99.90;;;;;;25341556;23;20434;-58
2023/10/30 09:29:09;;;;;;;2.95;1.52;;;11.00;99.90;;;;;;25341273;23;20005;-58
2023/10/30 09:39:12;;;;;;;3.65;0.90;;;11.20;99.90;;;;;;25341040;23;20013;-58
2023/10/30 09:49:14;;;;;;;2.65;0.95;;;11.30;99.90;;;;;;25339645;23;20083;-58
2023/10/30 09:59:16;;;;;;;2.25;1.45;;;11.30;99.90;;;;;;25339900;23;20334;-58
2023/10/30 10:09:18;;;;;;;1.88;1.05;;;11.40;99.90;;;;;;25315333;23;20065;-56
2023/10/30 10:19:21;;;;;;;1.77;1.00;;;11.30;99.90;;;;;;25313663;23;20017;-54
2023/10/30 10:29:23;;;;;;;1.95;1.10;;;11.30;99.90;;;;;;25339099;23;20002;-58
2023/10/30 10:39:25;;;;;;;1.17;0.60;;;11.30;99.90;;;;;;25338556;23;20010;-55
2023/10/30 10:49:27;;;;;;;1.80;0.80;;;11.30;99.90;;;;;;25312874;23;20006;-55
2023/10/30 10:59:34;;;;;;;1.77;0.40;;;11.20;99.90;;;;;;25339168;23;20025;-56
2023/10/30 11:09:47;;;;;;;1.42;0.45;;;10.80;99.90;;;;;;25311824;23;20069;-57
2023/10/30 11:19:49;;;;;;;2.65;0.50;;;10.50;99.90;;;;;;25378629;23;20013;-58
2023/10/30 11:30:03;;;;;;;2.95;0.52;;;10.50;99.90;;;;;;25337975;23;20010;-57
2023/10/30 11:40:10;;;;;;;2.22;0.47;;;10.50;99.90;;;;;;25336238;23;20382;-59
2023/10/30 11:50:11;;;;;;;1.00;0.30;;;10.30;99.90;;;;;;25384114;23;20162;-57
2023/10/30 12:00:14;;;;;;;2.05;0.60;;;10.50;99.90;;;;;;25345065;23;20320;-58
2023/10/30 12:10:15;;;;;;;3.92;0.60;;;10.60;99.90;;;;;;25344673;23;20002;-59
2023/10/30 12:20:17;;;;;;;2.35;0.85;;;10.20;99.90;;;;;;25343821;23;20002;-58
2023/10/30 12:30:20;;;;;;;2.22;0.50;;;10.00;99.90;;;;;;25317696;23;20009;-61
2023/10/30 12:40:25;;;;;;;1.65;0.57;;;10.10;99.90;;;;;;25343525;23;20005;-56
2023/10/30 12:50:27;;;;;;;5.80;0.90;;;10.10;99.90;;;;;;25317245;23;20013;-58
2023/10/30 13:00:28;;;;;;;4.32;0.60;;;10.30;99.90;;;;;;25342488;23;20312;-63
2023/10/30 13:10:30;;;;;;;1.75;0.20;;;10.20;99.90;;;;;;25342092;23;20060;-61
2023/10/30 13:20:54;;;;;;;0.75;0.25;;;10.00;99.90;;;;;;25316338;23;20005;-61
